Time;durP1;ratioP1;P1;durP2;ratioP2;P2;SDS_P1;SDS_P2;PMS_P1;PMS_P2;Temp;Humidity;BMP_temperature;BMP_pressure;BME280_temperature;BME280_humidity;BME280_pressure;Samples;Min_cycle;Max_cycle;Signal;HPM_P1;HPM_P2
2024/01/02 00:01:08;;;;;;;40.35;18.67;;;;;;;;;;10403408;28;20301;-76
2024/01/02 00:06:08;;;;;;;44.08;19.02;;;;;;;;;;10403465;28;20025;-77
2024/01/02 00:11:09;;;;;;;33.00;14.88;;;;;;;;;;10402992;28;20090;-78
2024/01/02 00:16:09;;;;;;;28.52;15.02;;;;;;;;;;10419623;28;20039;-77
2024/01/02 00:21:09;;;;;;;32.72;15.88;;;;;;;;;;10421095;28;20026;-79
2024/01/02 00:26:09;;;;;;;27.75;14.18;;;;;;;;;;10420468;28;20026;-78
2024/01/02 00:31:10;;;;;;;23.00;12.85;;;;;;;;;;10420136;28;20013;-77
2024/01/02 00:36:13;;;;;;;23.30;11.43;;;;;;;;;;10402040;28;20101;-78
2024/01/02 00:41:13;;;;;;;23.42;10.20;;;;;;;;;;10419673;28;20077;-78
2024/01/02 00:46:13;;;;;;;20.98;9.38;;;;;;;;;;10401564;28;20024;-77
2024/01/02 00:51:14;;;;;;;13.13;7.77;;;;;;;;;;10419005;28;20024;-78
2024/01/02 00:56:14;;;;;;;14.67;6.57;;;;;;;;;;10419285;28;20033;-78
2024/01/02 01:01:14;;;;;;;13.20;6.93;;;;;;;;;;10418691;28;20048;-77
2024/01/02 01:06:15;;;;;;;10.50;5.50;;;;;;;;;;10401386;28;20101;-77
2024/01/02 01:11:15;;;;;;;8.68;4.75;;;;;;;;;;10418438;28;20014;-77
2024/01/02 01:16:15;;;;;;;10.25;5.07;;;;;;;;;;10401164;28;20330;-79
2024/01/02 01:21:15;;;;;;;8.50;5.50;;;;;;;;;;10418060;28;20262;-78
2024/01/02 01:26:16;;;;;;;15.13;7.47;;;;;;;;;;10399664;28;20148;-78
2024/01/02 01:31:16;;;;;;;16.85;8.23;;;;;;;;;;10399198;28;20516;-78
2024/01/02 01:36:17;;;;;;;8.65;5.03;;;;;;;;;;10417316;28;20041;-78
2024/01/02 01:41:18;;;;;;;11.30;6.10;;;;;;;;;;10417868;28;20280;-78
2024/01/02 01:46:18;;;;;;;15.30;7.18;;;;;;;;;;10417060;28;20075;-78
2024/01/02 01:51:21;;;;;;;14.10;7.40;;;;;;;;;;10416426;28;20295;-77
2024/01/02 01:56:21;;;;;;;16.90;9.18;;;;;;;;;;10416696;28;20053;-77
2024/01/02 02:01:22;;;;;;;20.10;10.45;;;;;;;;;;10416504;28;20321;-76
2024/01/02 02:06:22;;;;;;;19.17;9.90;;;;;;;;;;10415919;28;20080;-78
2024/01/02 02:11:22;;;;;;;21.80;9.67;;;;;;;;;;10416233;28;20028;-78
2024/01/02 02:16:22;;;;;;;15.68;8.88;;;;;;;;;;10408117;28;20060;-78
2024/01/02 02:21:23;;;;;;;18.15;7.93;;;;;;;;;;10395776;28;20164;-78
2024/01/02 02:26:23;;;;;;;19.40;8.65;;;;;;;;;;10415758;28;20021;-78
2024/01/02 02:31:23;;;;;;;16.48;9.65;;;;;;;;;;10416746;28;20044;-76
2024/01/02 02:36:23;;;;;;;14.32;9.13;;;;;;;;;;10417392;28;20214;-76
2024/01/02 02:41:24;;;;;;;20.42;7.78;;;;;;;;;;10389459;28;20054;-79
2024/01/02 02:46:24;;;;;;;18.88;9.82;;;;;;;;;;10396895;28;20211;-76
2024/01/02 02:51:24;;;;;;;13.02;8.13;;;;;;;;;;10414087;28;20037;-77
2024/01/02 02:56:24;;;;;;;15.32;8.82;;;;;;;;;;10414078;28;20021;-78
2024/01/02 03:01:25;;;;;;;20.90;9.83;;;;;;;;;;10414210;28;20088;-78
2024/01/02 03:06:25;;;;;;;38.23;18.87;;;;;;;;;;10413036;28;20030;-78
2024/01/02 03:11:25;;;;;;;35.08;18.30;;;;;;;;;;10396010;28;20287;-77
2024/01/02 03:16:25;;;;;;;38.53;20.58;;;;;;;;;;10396061;28;20040;-77
2024/01/02 03:21:28;;;;;;;39.97;18.52;;;;;;;;;;10414350;28;20303;-78
2024/01/02 03:26:28;;;;;;;39.85;20.35;;;;;;;;;;10413436;28;20235;-77
2024/01/02 03:31:28;;;;;;;38.30;18.30;;;;;;;;;;10410699;28;20025;-78
2024/01/02 03:36:29;;;;;;;43.60;20.58;;;;;;;;;;10413759;28;20029;-77
2024/01/02 03:41:29;;;;;;;41.53;18.58;;;;;;;;;;10395889;28;20041;-76
2024/01/02 03:46:29;;;;;;;37.42;20.30;;;;;;;;;;10413379;28;20093;-76
2024/01/02 03:51:29;;;;;;;35.67;18.10;;;;;;;;;;10415354;28;20029;-76
2024/01/02 03:56:30;;;;;;;35.42;17.17;;;;;;;;;;10421039;28;20256;-77
2024/01/02 04:01:30;;;;;;;35.92;18.73;;;;;;;;;;10403192;28;20044;-77
2024/01/02 04:06:33;;;;;;;33.60;16.63;;;;;;;;;;10421378;28;20295;-77
2024/01/02 04:11:33;;;;;;;30.35;15.25;;;;;;;;;;10421033;28;20013;-76
2024/01/02 04:16:34;;;;;;;25.70;13.18;;;;;;;;;;10420145;28;20017;-77
2024/01/02 04:21:34;;;;;;;26.00;13.57;;;;;;;;;;10420209;28;20022;-76
2024/01/02 04:26:34;;;;;;;26.40;13.40;;;;;;;;;;10420414;28;20020;-78
2024/01/02 04:31:34;;;;;;;21.48;10.82;;;;;;;;;;10419540;28;20212;-77
2024/01/02 04:36:35;;;;;;;13.40;8.30;;;;;;;;;;10419388;28;20088;-77
2024/01/02 04:41:35;;;;;;;20.88;9.13;;;;;;;;;;10419178;28;20053;-76
2024/01/02 04:46:35;;;;;;;8.05;4.32;;;;;;;;;;10418688;28;20017;-77
2024/01/02 04:51:35;;;;;;;12.82;5.32;;;;;;;;;;10419603;28;20161;-78
2024/01/02 04:56:36;;;;;;;12.77;5.82;;;;;;;;;;10401291;28;20079;-77
2024/01/02 05:01:37;;;;;;;8.07;4.75;;;;;;;;;;10418748;28;20029;-78
2024/01/02 05:06:37;;;;;;;7.55;4.32;;;;;;;;;;10417512;28;20051;-77
2024/01/02 05:11:38;;;;;;;9.63;5.15;;;;;;;;;;10402584;28;20013;-77
2024/01/02 05:16:41;;;;;;;11.05;4.63;;;;;;;;;;10419892;28;20345;-78
2024/01/02 05:21:41;;;;;;;7.50;4.18;;;;;;;;;;10379330;28;20334;-78
2024/01/02 05:26:41;;;;;;;7.03;3.47;;;;;;;;;;10413220;28;20048;-77
2024/01/02 05:31:42;;;;;;;5.47;3.75;;;;;;;;;;10417265;28;20434;-78
2024/01/02 05:36:44;;;;;;;9.02;3.80;;;;;;;;;;10416086;28;20041;-77
2024/01/02 05:41:44;;;;;;;6.55;3.10;;;;;;;;;;10400783;28;20047;-78
2024/01/02 05:46:44;;;;;;;3.95;2.33;;;;;;;;;;10392847;28;20235;-78
2024/01/02 05:51:45;;;;;;;4.60;2.40;;;;;;;;;;10374267;28;20013;-77
2024/01/02 05:56:45;;;;;;;4.13;2.50;;;;;;;;;;10400924;28;20215;-80
2024/01/02 06:01:46;;;;;;;3.72;2.22;;;;;;;;;;10401525;28;20292;-80
2024/01/02 06:06:46;;;;;;;2.58;1.33;;;;;;;;;;10400829;28;20017;-80
2024/01/02 06:11:46;;;;;;;2.20;1.40;;;;;;;;;;10415288;28;20013;-78
2024/01/02 06:16:46;;;;;;;3.40;1.60;;;;;;;;;;10398614;28;20025;-78
2024/01/02 06:21:46;;;;;;;2.38;1.75;;;;;;;;;;10417518;28;20243;-78
2024/01/02 06:26:47;;;;;;;2.10;1.13;;;;;;;;;;10396040;28;20088;-78
2024/01/02 06:31:47;;;;;;;1.45;1.30;;;;;;;;;;10416838;28;20018;-79
2024/01/02 06:36:47;;;;;;;2.10;1.73;;;;;;;;;;10416479;28;20022;-80
2024/01/02 06:41:48;;;;;;;4.13;1.90;;;;;;;;;;10407818;28;20045;-78
2024/01/02 06:46:48;;;;;;;4.22;1.65;;;;;;;;;;10392038;28;20317;-79
2024/01/02 06:51:48;;;;;;;5.72;1.90;;;;;;;;;;10417720;28;20203;-79
2024/01/02 06:56:48;;;;;;;7.97;1.90;;;;;;;;;;10417454;28;20045;-79
2024/01/02 07:01:48;;;;;;;2.47;1.85;;;;;;;;;;10418010;28;20018;-78
2024/01/02 07:06:49;;;;;;;6.32;2.20;;;;;;;;;;10417609;28;20041;-78
2024/01/02 07:11:49;;;;;;;5.70;1.88;;;;;;;;;;10399558;28;20087;-78
2024/01/02 07:16:49;;;;;;;5.78;1.77;;;;;;;;;;10416994;28;20323;-79
2024/01/02 07:21:49;;;;;;;10.25;1.75;;;;;;;;;;10417231;28;20024;-76
2024/01/02 07:26:50;;;;;;;3.92;2.00;;;;;;;;;;10422520;28;20055;-78
2024/01/02 07:31:50;;;;;;;1.95;1.58;;;;;;;;;;10407930;28;20018;-78
2024/01/02 07:36:50;;;;;;;1.90;1.50;;;;;;;;;;10424002;28;20021;-78
2024/01/02 07:41:50;;;;;;;3.80;1.87;;;;;;;;;;10424715;28;20266;-78
2024/01/02 07:46:51;;;;;;;1.35;0.85;;;;;;;;;;10425272;28;20044;-78
2024/01/02 07:51:51;;;;;;;3.13;1.90;;;;;;;;;;10425613;28;20256;-78
2024/01/02 07:56:51;;;;;;;3.03;1.43;;;;;;;;;;10424492;28;20039;-79
2024/01/02 08:01:51;;;;;;;3.83;1.65;;;;;;;;;;10424070;28;20013;-77
2024/01/02 08:06:52;;;;;;;4.28;2.30;;;;;;;;;;10424227;28;20052;-78
2024/01/02 08:11:52;;;;;;;3.92;1.77;;;;;;;;;;10405853;28;20317;-78
2024/01/02 08:16:52;;;;;;;1.42;1.08;;;;;;;;;;10423532;28;20092;-77
2024/01/02 08:21:52;;;;;;;1.85;1.25;;;;;;;;;;10405478;28;20013;-77
2024/01/02 08:26:52;;;;;;;3.25;1.55;;;;;;;;;;10422615;28;20256;-78
2024/01/02 08:31:53;;;;;;;3.20;1.00;;;;;;;;;;10422218;28;20095;-78
2024/01/02 08:36:53;;;;;;;1.50;0.82;;;;;;;;;;10421677;28;20104;-78
2024/01/02 08:41:53;;;;;;;1.88;1.38;;;;;;;;;;10423631;28;20041;-77
2024/01/02 08:46:53;;;;;;;4.32;1.27;;;;;;;;;;10422891;28;20045;-76
2024/01/02 08:51:54;;;;;;;3.77;1.77;;;;;;;;;;10422191;28;20080;-79
2024/01/02 08:56:54;;;;;;;4.70;1.58;;;;;;;;;;10421748;28;20021;-79
2024/01/02 09:01:54;;;;;;;1.83;1.17;;;;;;;;;;10403923;28;20318;-77
2024/01/02 09:06:54;;;;;;;4.85;1.35;;;;;;;;;;10420966;28;20021;-79
2024/01/02 09:11:55;;;;;;;1.88;1.23;;;;;;;;;;10420939;28;20302;-79
2024/01/02 09:16:55;;;;;;;4.38;1.67;;;;;;;;;;10420885;28;20036;-78
2024/01/02 09:21:56;;;;;;;2.38;1.23;;;;;;;;;;10421240;28;20049;-78
2024/01/02 09:26:58;;;;;;;2.33;1.30;;;;;;;;;;10420378;28;20082;-77
2024/01/02 09:31:58;;;;;;;5.18;1.27;;;;;;;;;;10403303;28;20045;-78
2024/01/02 09:36:58;;;;;;;2.10;1.40;;;;;;;;;;10420718;28;20365;-78
2024/01/02 09:42:13;;;;;;;5.50;1.52;;;;;;;;;;10402203;28;20741;-79
2024/01/02 09:47:24;;;;;;;7.30;1.95;;;;;;;;;;10420026;28;20037;-77
2024/01/02 09:52:34;;;;;;;2.88;1.95;;;;;;;;;;10419154;28;20468;-77
2024/01/02 09:57:38;;;;;;;2.47;1.70;;;;;;;;;;10419401;28;20021;-78
2024/01/02 10:02:56;;;;;;;5.25;1.95;;;;;;;;;;10418985;28;20339;-77
2024/01/02 10:08:09;;;;;;;3.13;1.05;;;;;;;;;;10418796;28;20024;-78
2024/01/02 10:13:12;;;;;;;3.88;1.20;;;;;;;;;;10418184;28;20089;-78
2024/01/02 10:18:21;;;;;;;3.05;1.20;;;;;;;;;;10401087;28;20199;-77
2024/01/02 10:23:28;;;;;;;2.05;1.50;;;;;;;;;;10400403;28;20211;-79
2024/01/02 10:28:28;;;;;;;4.40;1.35;;;;;;;;;;10418127;28;20028;-78
2024/01/02 10:33:34;;;;;;;2.13;1.27;;;;;;;;;;10417944;28;20028;-78
2024/01/02 10:38:39;;;;;;;1.85;1.02;;;;;;;;;;10417574;28;20238;-79
2024/01/02 10:43:47;;;;;;;4.10;2.50;;;;;;;;;;10417678;28;20037;-78
2024/01/02 10:49:06;;;;;;;2.30;1.40;;;;;;;;;;10391176;28;20045;-76
2024/01/02 10:54:13;;;;;;;2.97;1.45;;;;;;;;;;10407850;28;20033;-77
2024/01/02 10:59:16;;;;;;;5.85;2.10;;;;;;;;;;10419449;28;20040;-79
2024/01/02 11:04:21;;;;;;;2.88;1.70;;;;;;;;;;10413012;28;20326;-79
2024/01/02 11:09:34;;;;;;;27.60;17.73;;;;;;;;;;10388668;28;20033;-77
2024/01/02 11:14:35;;;;;;;6.20;3.10;;;;;;;;;;10419480;28;20303;-78
2024/01/02 11:19:40;;;;;;;5.10;2.63;;;;;;;;;;10430400;28;20180;-77
2024/01/02 11:24:45;;;;;;;4.88;2.42;;;;;;;;;;10430100;28;20021;-76
2024/01/02 11:29:48;;;;;;;5.70;2.35;;;;;;;;;;10429987;28;20035;-78
2024/01/02 11:34:50;;;;;;;3.80;1.92;;;;;;;;;;10429927;28;20029;-78
2024/01/02 11:40:09;;;;;;;356.05;330.25;;;;;;;;;;10429821;28;20331;-78
2024/01/02 11:45:13;;;;;;;42.53;40.00;;;;;;;;;;10429799;28;20033;-77
2024/01/02 11:50:15;;;;;;;536.22;497.17;;;;;;;;;;10434984;28;20047;-77
2024/01/02 11:55:20;;;;;;;757.25;690.92;;;;;;;;;;10443481;28;20445;-77
2024/01/02 12:00:47;;;;;;;122.10;113.63;;;;;;;;;;10411854;28;20017;-79
2024/01/02 12:05:50;;;;;;;66.47;62.72;;;;;;;;;;10427438;28;20084;-79
2024/01/02 12:10:56;;;;;;;12.63;11.32;;;;;;;;;;10397804;28;20216;-77
2024/01/02 12:16:00;;;;;;;62.58;59.30;;;;;;;;;;10408255;28;20022;-79
2024/01/02 12:21:19;;;;;;;39.75;37.17;;;;;;;;;;10406186;28;20230;-78
2024/01/02 12:26:20;;;;;;;259.52;245.45;;;;;;;;;;10423437;28;20045;-76
2024/01/02 12:31:23;;;;;;;366.98;345.17;;;;;;;;;;10422278;28;20029;-78
2024/01/02 12:36:43;;;;;;;439.15;411.65;;;;;;;;;;10404218;28;20025;-78
2024/01/02 12:41:51;;;;;;;302.10;281.85;;;;;;;;;;10422119;28;20121;-78
2024/01/02 12:46:51;;;;;;;5.10;1.35;;;;;;;;;;10421531;28;20319;-77
2024/01/02 12:52:00;;;;;;;1.45;1.33;;;;;;;;;;10422145;28;20018;-78
2024/01/02 12:57:07;;;;;;;5.35;1.73;;;;;;;;;;10421502;28;20013;-77
2024/01/02 13:02:08;;;;;;;3.75;2.15;;;;;;;;;;10420947;28;20018;-80
2024/01/02 13:07:11;;;;;;;50.92;47.97;;;;;;;;;;10421456;28;20085;-78
2024/01/02 13:12:12;;;;;;;2.70;1.75;;;;;;;;;;10421846;28;20105;-77
2024/01/02 13:17:13;;;;;;;392.45;369.30;;;;;;;;;;10420853;28;20295;-79
2024/01/02 13:22:20;;;;;;;220.90;205.43;;;;;;;;;;10420398;28;20120;-79
2024/01/02 13:27:24;;;;;;;50.00;47.33;;;;;;;;;;10420872;28;20033;-78
2024/01/02 13:32:25;;;;;;;62.92;59.58;;;;;;;;;;10403006;28;20151;-78
2024/01/02 13:37:28;;;;;;;97.37;92.03;;;;;;;;;;10420154;28;20028;-77
2024/01/02 13:42:29;;;;;;;149.93;142.07;;;;;;;;;;10377380;28;20050;-77
2024/01/02 13:47:34;;;;;;;193.95;180.35;;;;;;;;;;10379052;28;20026;-78
2024/01/02 13:52:34;;;;;;;6.75;3.63;;;;;;;;;;10377641;28;20017;-78
2024/01/02 13:57:35;;;;;;;268.05;251.48;;;;;;;;;;10378597;28;20324;-77
2024/01/02 14:02:36;;;;;;;7.45;3.65;;;;;;;;;;10376817;28;20354;-77
2024/01/02 14:07:41;;;;;;;9.52;5.10;;;;;;;;;;10376860;28;20021;-77
2024/01/02 14:12:44;;;;;;;69.82;65.85;;;;;;;;;;10375709;28;20022;-79
2024/01/02 14:17:46;;;;;;;113.05;107.25;;;;;;;;;;10351489;28;20014;-79
2024/01/02 14:22:52;;;;;;;162.23;153.63;;;;;;;;;;10377537;28;20068;-77
2024/01/02 14:27:52;;;;;;;62.13;58.53;;;;;;;;;;10375776;28;20028;-79
2024/01/02 14:33:11;;;;;;;9.18;6.75;;;;;;;;;;10378767;28;20029;-80
2024/01/02 14:38:29;;;;;;;32.00;30.10;;;;;;;;;;10379074;28;20018;-79
2024/01/02 14:43:43;;;;;;;6.70;4.55;;;;;;;;;;10388886;28;20037;-81
2024/01/02 14:48:43;;;;;;;8.27;4.50;;;;;;;;;;10379459;28;20379;-82
2024/01/02 14:53:49;;;;;;;17.27;7.13;;;;;;;;;;10379585;28;20052;-82
2024/01/02 14:58:58;;;;;;;31.25;28.23;;;;;;;;;;10379911;28;20216;-82
2024/01/02 15:03:58;;;;;;;;;;;;;;;;;;10381513;28;20022;-82
2024/01/02 15:09:04;;;;;;;30.45;16.67;;;;;;;;;;10381088;28;20007;-80
2024/01/02 15:14:23;;;;;;;22.98;11.88;;;;;;;;;;10380559;28;20375;-82
2024/01/02 15:19:26;;;;;;;22.80;12.32;;;;;;;;;;10382134;28;20022;-82
2024/01/02 15:24:35;;;;;;;20.05;10.60;;;;;;;;;;10380247;28;20014;-79
2024/01/02 15:29:40;;;;;;;23.77;12.23;;;;;;;;;;10380208;28;20022;-82
2024/01/02 15:34:59;;;;;;;20.75;11.23;;;;;;;;;;10379266;28;20025;-83
2024/01/02 15:40:04;;;;;;;24.55;14.95;;;;;;;;;;10394401;28;20430;-84
2024/01/02 15:45:08;;;;;;;24.75;13.80;;;;;;;;;;10422543;28;20025;-85
2024/01/02 15:50:29;;;;;;;28.52;17.58;;;;;;;;;;10410728;28;20029;-82
2024/01/02 15:55:39;;;;;;;33.80;15.98;;;;;;;;;;10424687;28;20049;-84
2024/01/02 16:00:41;;;;;;;168.52;155.68;;;;;;;;;;10416101;28;20021;-84
2024/01/02 16:05:50;;;;;;;171.48;160.50;;;;;;;;;;10409651;28;20014;-84
2024/01/02 16:11:10;;;;;;;27.13;13.85;;;;;;;;;;10408889;28;20214;-82
2024/01/02 16:16:16;;;;;;;144.00;131.15;;;;;;;;;;10409612;28;20044;-86
2024/01/02 16:21:21;;;;;;;105.22;97.20;;;;;;;;;;10427895;28;20207;-83
2024/01/02 16:26:37;;;;;;;240.50;221.90;;;;;;;;;;10426166;28;20285;-83
2024/01/02 16:32:14;;;;;;;307.02;283.92;;;;;;;;;;10408316;28;20207;-82
2024/01/02 16:37:17;;;;;;;344.98;320.92;;;;;;;;;;10351710;28;20033;-79
2024/01/02 16:42:29;;;;;;;130.50;119.82;;;;;;;;;;10385736;28;20045;-87
2024/01/02 16:47:29;;;;;;;196.95;181.23;;;;;;;;;;10378433;28;20503;-83
2024/01/02 16:52:35;;;;;;;262.90;242.45;;;;;;;;;;10364161;28;20123;-81
2024/01/02 16:57:37;;;;;;;23.98;11.95;;;;;;;;;;10360151;28;20329;-79
2024/01/02 17:02:37;;;;;;;22.42;12.55;;;;;;;;;;10361222;28;20022;-83
2024/01/02 17:07:39;;;;;;;22.75;10.98;;;;;;;;;;10353549;28;20029;-80
2024/01/02 17:12:42;;;;;;;24.70;12.90;;;;;;;;;;10356022;28;20367;-85
2024/01/02 17:17:42;;;;;;;27.20;13.68;;;;;;;;;;10364285;28;20065;-82
2024/01/02 17:22:43;;;;;;;27.83;13.47;;;;;;;;;;10352605;28;20037;-88
2024/01/02 17:27:43;;;;;;;27.83;12.43;;;;;;;;;;10384269;28;20302;-91
2024/01/02 17:32:47;;;;;;;29.25;14.32;;;;;;;;;;10368775;28;20420;-89
2024/01/02 17:38:22;;;;;;;18.38;10.07;;;;;;;;;;10372820;28;20018;-92
2024/01/02 17:43:22;;;;;;;22.77;9.77;;;;;;;;;;10383205;28;20236;-84
2024/01/02 17:48:24;;;;;;;204.00;187.55;;;;;;;;;;10377403;28;20036;-88
2024/01/02 17:53:30;;;;;;;147.23;137.38;;;;;;;;;;10360542;28;20354;-87
2024/01/02 17:58:38;;;;;;;485.15;446.60;;;;;;;;;;10362654;28;20362;-89
2024/01/02 18:03:44;;;;;;;387.40;358.55;;;;;;;;;;10356013;28;20040;-86
2024/01/02 18:08:53;;;;;;;22.52;12.32;;;;;;;;;;10383797;28;20030;-92
2024/01/02 18:14:07;;;;;;;33.00;12.13;;;;;;;;;;10360836;28;20018;-82
2024/01/02 18:19:28;;;;;;;24.05;13.13;;;;;;;;;;10364883;28;20300;-80
2024/01/02 18:24:30;;;;;;;24.48;11.68;;;;;;;;;;10361141;28;20088;-84
2024/01/02 18:29:50;;;;;;;26.63;12.63;;;;;;;;;;10382472;28;20298;-82
2024/01/02 18:35:17;;;;;;;25.20;11.45;;;;;;;;;;10363782;28;20339;-91
2024/01/02 18:40:24;;;;;;;32.40;13.38;;;;;;;;;;10365694;28;20073;-87
2024/01/02 18:45:35;;;;;;;27.13;14.35;;;;;;;;;;10401852;28;20228;-94
2024/01/02 18:50:37;;;;;;;31.55;14.05;;;;;;;;;;10390519;28;20022;-81
2024/01/02 18:55:39;;;;;;;44.70;37.95;;;;;;;;;;10398106;28;20235;-80
2024/01/02 19:01:00;;;;;;;466.98;433.17;;;;;;;;;;10397736;28;20018;-83
2024/01/02 19:06:00;;;;;;;328.55;305.02;;;;;;;;;;10394679;28;20036;-85
2024/01/02 19:11:06;;;;;;;554.33;510.40;;;;;;;;;;10373019;28;20375;-82
2024/01/02 19:16:09;;;;;;;565.35;519.17;;;;;;;;;;10370782;28;20678;-81
2024/01/02 19:21:18;;;;;;;401.52;373.08;;;;;;;;;;10397873;28;20021;-81
2024/01/02 19:26:21;;;;;;;552.00;506.92;;;;;;;;;;10394479;28;20024;-81
2024/01/02 19:31:23;;;;;;;507.58;468.55;;;;;;;;;;10380047;28;20049;-81
2024/01/02 19:36:23;;;;;;;436.58;404.52;;;;;;;;;;10376494;23;20057;-78
2024/01/02 19:41:24;;;;;;;364.92;340.38;;;;;;;;;;10338832;28;21265;-79
2024/01/02 19:46:26;;;;;;;531.95;484.85;;;;;;;;;;10326242;28;20010;-84
2024/01/02 19:51:27;;;;;;;310.70;290.63;;;;;;;;;;10321645;28;20114;-79
2024/01/02 19:56:27;;;;;;;58.83;53.88;;;;;;;;;;10304994;28;20141;-82
2024/01/02 20:01:28;;;;;;;22.88;16.23;;;;;;;;;;10340606;28;20014;-85
2024/01/02 20:06:31;;;;;;;90.68;85.07;;;;;;;;;;10320175;28;20030;-82
2024/01/02 20:11:35;;;;;;;70.82;65.60;;;;;;;;;;10323403;28;20026;-80
2024/01/02 20:16:42;;;;;;;29.98;24.38;;;;;;;;;;10322852;28;20031;-83
2024/01/02 20:21:44;;;;;;;22.02;12.48;;;;;;;;;;10336318;28;20033;-80
2024/01/02 20:26:44;;;;;;;21.85;11.05;;;;;;;;;;10322860;28;20545;-78
2024/01/02 20:31:46;;;;;;;21.53;9.63;;;;;;;;;;10299169;28;20062;-79
2024/01/02 20:36:47;;;;;;;19.05;9.95;;;;;;;;;;10321704;28;20387;-79
2024/01/02 20:42:00;;;;;;;18.42;10.90;;;;;;;;;;10336789;28;20014;-83
2024/01/02 20:47:03;;;;;;;19.25;10.77;;;;;;;;;;10322138;28;20041;-81
2024/01/02 20:52:03;;;;;;;19.92;10.35;;;;;;;;;;10323577;28;20444;-83
2024/01/02 20:57:03;;;;;;;16.10;10.43;;;;;;;;;;10298350;28;20117;-83
2024/01/02 21:02:10;;;;;;;23.67;11.52;;;;;;;;;;10297658;28;20745;-79
2024/01/02 21:07:16;;;;;;;22.98;11.30;;;;;;;;;;10340668;28;20515;-79
2024/01/02 21:12:20;;;;;;;319.63;290.88;;;;;;;;;;10318845;28;20536;-82
2024/01/02 21:17:23;;;;;;;77.10;70.47;;;;;;;;;;10290006;28;20018;-82
2024/01/02 21:22:23;;;;;;;259.65;241.88;;;;;;;;;;10318364;28;20030;-78
2024/01/02 21:27:24;;;;;;;171.05;159.90;;;;;;;;;;10321083;28;20024;-79
2024/01/02 21:32:24;;;;;;;78.88;72.15;;;;;;;;;;10343440;28;20022;-77
2024/01/02 21:37:29;;;;;;;25.50;13.20;;;;;;;;;;10333488;28;20046;-79
2024/01/02 21:42:32;;;;;;;109.90;101.47;;;;;;;;;;10320540;28;20037;-77
2024/01/02 21:47:33;;;;;;;23.47;12.53;;;;;;;;;;10312578;28;20014;-77
2024/01/02 21:52:39;;;;;;;21.58;11.57;;;;;;;;;;10319158;28;20461;-78
2024/01/02 21:57:43;;;;;;;28.95;12.70;;;;;;;;;;10316019;28;20030;-77
2024/01/02 22:03:02;;;;;;;26.65;11.40;;;;;;;;;;10329968;28;20018;-81
2024/01/02 22:08:04;;;;;;;23.05;11.00;;;;;;;;;;10288968;28;20022;-76
2024/01/02 22:13:05;;;;;;;54.88;50.10;;;;;;;;;;10303348;28;20117;-78
2024/01/02 22:18:05;;;;;;;77.82;71.75;;;;;;;;;;10307651;28;20025;-76
2024/01/02 22:23:07;;;;;;;24.08;11.70;;;;;;;;;;10296774;28;20988;-82
2024/01/02 22:28:28;;;;;;;26.15;11.93;;;;;;;;;;10320782;28;20026;-77
2024/01/02 22:33:43;;;;;;;22.77;12.25;;;;;;;;;;10304655;28;20140;-78
2024/01/02 22:38:43;;;;;;;24.20;11.77;;;;;;;;;;10325529;28;20507;-77
2024/01/02 22:43:43;;;;;;;24.98;10.73;;;;;;;;;;10318844;28;20095;-77
2024/01/02 22:48:44;;;;;;;24.45;12.65;;;;;;;;;;10315162;28;20433;-82
2024/01/02 22:53:44;;;;;;;25.67;11.35;;;;;;;;;;10317965;28;20022;-78
2024/01/02 22:58:44;;;;;;;25.60;11.10;;;;;;;;;;10285710;28;20031;-77
2024/01/02 23:03:44;;;;;;;21.77;12.02;;;;;;;;;;10330738;28;20028;-77
2024/01/02 23:08:45;;;;;;;19.97;11.00;;;;;;;;;;10327904;28;20037;-76
2024/01/02 23:13:45;;;;;;;25.02;11.50;;;;;;;;;;10318291;28;20295;-76
2024/01/02 23:19:05;;;;;;;25.02;11.43;;;;;;;;;;10315142;28;20076;-76
2024/01/02 23:24:08;;;;;;;23.13;11.93;;;;;;;;;;10290649;28;20107;-76
2024/01/02 23:29:13;;;;;;;25.42;12.88;;;;;;;;;;10317912;28;20026;-76
2024/01/02 23:34:23;;;;;;;23.35;12.27;;;;;;;;;;10316554;28;20093;-75
2024/01/02 23:39:26;;;;;;;29.10;11.73;;;;;;;;;;10333033;28;20034;-77
2024/01/02 23:44:27;;;;;;;25.75;12.00;;;;;;;;;;10293087;28;20113;-78
2024/01/02 23:49:27;;;;;;;23.05;12.02;;;;;;;;;;10279394;28;20048;-77
2024/01/02 23:54:46;;;;;;;23.83;12.02;;;;;;;;;;10324478;28;20057;-77
2024/01/02 23:59:46;;;;;;;25.42;13.13;;;;;;;;;;10288246;28;20489;-77
